sensor_id;sensor_type;location;lat;lon;timestamp;pressure;altitude;pressure_sealevel;temperature;humidity
35892;BME280;21993;42.672;23.296;2023-02-19T00:00:55;94999.09;;;10.31;49.94
35892;BME280;21993;42.672;23.296;2023-02-19T00:03:22;94985.34;;;10.39;49.58
35892;BME280;21993;42.672;23.296;2023-02-19T00:05:47;94987.00;;;10.40;50.02
35892;BME280;21993;42.672;23.296;2023-02-19T00:08:13;94982.72;;;10.39;49.68
35892;BME280;21993;42.672;23.296;2023-02-19T00:10:38;94985.19;;;10.40;49.40
35892;BME280;21993;42.672;23.296;2023-02-19T00:13:03;94978.16;;;10.41;49.41
35892;BME280;21993;42.672;23.296;2023-02-19T00:15:31;94977.84;;;10.34;49.50
35892;BME280;21993;42.672;23.296;2023-02-19T00:17:56;94984.78;;;10.35;49.73
35892;BME280;21993;42.672;23.296;2023-02-19T00:20:22;94977.03;;;10.02;50.89
35892;BME280;21993;42.672;23.296;2023-02-19T00:22:47;94982.31;;;10.23;50.53
35892;BME280;21993;42.672;23.296;2023-02-19T00:25:12;94974.44;;;10.23;50.44
35892;BME280;21993;42.672;23.296;2023-02-19T00:27:38;94970.00;;;10.34;50.36
35892;BME280;21993;42.672;23.296;2023-02-19T00:30:03;94961.66;;;10.29;50.25
35892;BME280;21993;42.672;23.296;2023-02-19T00:32:29;94956.81;;;10.13;50.33
35892;BME280;21993;42.672;23.296;2023-02-19T00:34:54;94960.13;;;10.27;50.20
35892;BME280;21993;42.672;23.296;2023-02-19T00:37:20;94963.59;;;10.27;50.39
35892;BME280;21993;42.672;23.296;2023-02-19T00:39:45;94960.00;;;10.28;50.42
35892;BME280;21993;42.672;23.296;2023-02-19T00:42:11;94952.63;;;10.22;50.50
35892;BME280;21993;42.672;23.296;2023-02-19T00:44:36;94963.59;;;10.27;50.21
35892;BME280;21993;42.672;23.296;2023-02-19T00:47:01;94953.66;;;10.31;50.45
35892;BME280;21993;42.672;23.296;2023-02-19T00:49:27;94940.50;;;10.10;50.64
35892;BME280;21993;42.672;23.296;2023-02-19T00:51:52;94937.56;;;10.03;51.25
35892;BME280;21993;42.672;23.296;2023-02-19T00:54:18;94945.69;;;9.57;52.70
35892;BME280;21993;42.672;23.296;2023-02-19T00:56:44;94946.59;;;9.78;51.25
35892;BME280;21993;42.672;23.296;2023-02-19T00:59:10;94943.34;;;9.54;52.26
35892;BME280;21993;42.672;23.296;2023-02-19T01:01:35;94928.19;;;9.57;51.82
35892;BME280;21993;42.672;23.296;2023-02-19T01:04:01;94933.84;;;9.74;51.28
35892;BME280;21993;42.672;23.296;2023-02-19T01:06:26;94924.31;;;9.73;51.51
35892;BME280;21993;42.672;23.296;2023-02-19T01:08:54;94938.38;;;9.72;51.84
35892;BME280;21993;42.672;23.296;2023-02-19T01:11:19;94934.44;;;9.77;52.30
35892;BME280;21993;42.672;23.296;2023-02-19T01:13:45;94916.59;;;9.71;51.84
35892;BME280;21993;42.672;23.296;2023-02-19T01:16:16;94914.94;;;9.70;51.67
35892;BME280;21993;42.672;23.296;2023-02-19T01:18:43;94925.91;;;9.64;52.62
35892;BME280;21993;42.672;23.296;2023-02-19T01:21:14;94928.50;;;9.75;52.26
35892;BME280;21993;42.672;23.296;2023-02-19T01:23:41;94941.09;;;9.81;51.27
35892;BME280;21993;42.672;23.296;2023-02-19T01:26:08;94931.97;;;9.76;51.65
35892;BME280;21993;42.672;23.296;2023-02-19T01:28:34;94951.03;;;9.67;52.40
35892;BME280;21993;42.672;23.296;2023-02-19T01:31:04;94947.63;;;9.55;52.19
35892;BME280;21993;42.672;23.296;2023-02-19T01:33:31;94945.63;;;9.47;52.28
35892;BME280;21993;42.672;23.296;2023-02-19T01:35:56;94957.34;;;9.64;51.31
35892;BME280;21993;42.672;23.296;2023-02-19T01:38:22;94959.38;;;9.72;52.00
35892;BME280;21993;42.672;23.296;2023-02-19T01:40:59;94962.47;;;9.77;51.33
35892;BME280;21993;42.672;23.296;2023-02-19T01:43:25;94971.16;;;9.77;51.72
35892;BME280;21993;42.672;23.296;2023-02-19T01:45:50;94970.34;;;9.66;51.64
35892;BME280;21993;42.672;23.296;2023-02-19T01:48:36;94978.28;;;8.98;52.58
35892;BME280;21993;42.672;23.296;2023-02-19T01:51:16;95001.75;;;9.22;52.89
35892;BME280;21993;42.672;23.296;2023-02-19T01:53:45;94986.97;;;9.21;52.96
35892;BME280;21993;42.672;23.296;2023-02-19T01:56:13;94983.16;;;9.14;53.50
35892;BME280;21993;42.672;23.296;2023-02-19T01:58:40;94991.97;;;9.36;52.61
35892;BME280;21993;42.672;23.296;2023-02-19T02:01:07;94981.84;;;9.31;52.56
35892;BME280;21993;42.672;23.296;2023-02-19T02:03:34;94989.50;;;9.00;54.05
35892;BME280;21993;42.672;23.296;2023-02-19T02:06:32;94974.34;;;9.15;52.72
35892;BME280;21993;42.672;23.296;2023-02-19T02:08:59;94969.47;;;9.22;52.78
35892;BME280;21993;42.672;23.296;2023-02-19T02:11:50;94966.69;;;9.46;51.70
35892;BME280;21993;42.672;23.296;2023-02-19T02:14:17;94960.78;;;9.21;51.53
35892;BME280;21993;42.672;23.296;2023-02-19T02:30:41;94972.22;;;9.20;52.29
35892;BME280;21993;42.672;23.296;2023-02-19T02:33:12;94983.78;;;9.18;52.02
35892;BME280;21993;42.672;23.296;2023-02-19T02:35:47;94982.78;;;9.41;52.40
35892;BME280;21993;42.672;23.296;2023-02-19T02:38:14;94984.78;;;9.49;52.00
35892;BME280;21993;42.672;23.296;2023-02-19T02:40:43;94987.44;;;9.38;52.10
35892;BME280;21993;42.672;23.296;2023-02-19T02:43:09;94992.44;;;9.41;52.04
35892;BME280;21993;42.672;23.296;2023-02-19T02:45:36;94978.88;;;9.36;51.50
35892;BME280;21993;42.672;23.296;2023-02-19T02:54:06;94981.22;;;9.50;51.21
35892;BME280;21993;42.672;23.296;2023-02-19T02:56:52;94983.47;;;9.54;51.35
35892;BME280;21993;42.672;23.296;2023-02-19T02:59:22;94980.75;;;9.45;51.83
35892;BME280;21993;42.672;23.296;2023-02-19T03:02:04;94970.59;;;9.63;51.87
35892;BME280;21993;42.672;23.296;2023-02-19T03:07:24;94985.63;;;9.61;51.48
35892;BME280;21993;42.672;23.296;2023-02-19T03:09:51;94987.03;;;9.65;51.95
35892;BME280;21993;42.672;23.296;2023-02-19T03:12:19;94986.31;;;9.63;51.65
35892;BME280;21993;42.672;23.296;2023-02-19T03:15:07;94996.09;;;9.61;51.20
35892;BME280;21993;42.672;23.296;2023-02-19T03:17:55;94980.84;;;9.54;51.44
35892;BME280;21993;42.672;23.296;2023-02-19T03:20:45;94988.97;;;9.40;51.83
35892;BME280;21993;42.672;23.296;2023-02-19T03:23:13;94990.03;;;9.49;51.85
35892;BME280;21993;42.672;23.296;2023-02-19T03:25:40;95000.75;;;9.46;51.76
35892;BME280;21993;42.672;23.296;2023-02-19T03:28:28;95005.75;;;9.49;51.60
35892;BME280;21993;42.672;23.296;2023-02-19T03:31:16;95005.44;;;9.42;52.10
35892;BME280;21993;42.672;23.296;2023-02-19T03:33:46;95018.41;;;9.32;52.66
35892;BME280;21993;42.672;23.296;2023-02-19T03:36:14;95030.06;;;9.40;52.12
35892;BME280;21993;42.672;23.296;2023-02-19T03:38:50;95022.44;;;9.37;52.26
35892;BME280;21993;42.672;23.296;2023-02-19T03:44:32;95032.31;;;9.33;53.10
35892;BME280;21993;42.672;23.296;2023-02-19T03:47:19;95032.31;;;9.33;52.72
35892;BME280;21993;42.672;23.296;2023-02-19T03:55:18;95032.34;;;9.22;53.37
35892;BME280;21993;42.672;23.296;2023-02-19T03:57:59;95042.81;;;9.22;52.71
35892;BME280;21993;42.672;23.296;2023-02-19T04:00:33;95039.00;;;9.15;53.15
35892;BME280;21993;42.672;23.296;2023-02-19T04:03:06;95037.94;;;9.17;52.55
35892;BME280;21993;42.672;23.296;2023-02-19T04:05:40;95034.00;;;9.12;53.74
35892;BME280;21993;42.672;23.296;2023-02-19T04:08:13;95044.13;;;9.05;53.60
35892;BME280;21993;42.672;23.296;2023-02-19T04:10:40;95050.06;;;9.07;53.21
35892;BME280;21993;42.672;23.296;2023-02-19T04:13:14;95045.78;;;9.06;53.51
35892;BME280;21993;42.672;23.296;2023-02-19T04:15:43;95039.84;;;8.93;54.41
35892;BME280;21993;42.672;23.296;2023-02-19T04:18:17;95045.19;;;8.91;53.22
35892;BME280;21993;42.672;23.296;2023-02-19T04:20:45;95045.53;;;8.87;54.32
35892;BME280;21993;42.672;23.296;2023-02-19T04:23:15;95060.59;;;8.72;53.99
35892;BME280;21993;42.672;23.296;2023-02-19T04:25:44;95059.31;;;8.66;54.35
35892;BME280;21993;42.672;23.296;2023-02-19T04:28:13;95057.41;;;8.68;53.34
35892;BME280;21993;42.672;23.296;2023-02-19T04:30:41;95054.25;;;8.41;55.16
35892;BME280;21993;42.672;23.296;2023-02-19T04:33:07;95059.69;;;8.38;55.18
35892;BME280;21993;42.672;23.296;2023-02-19T04:35:32;95065.66;;;8.16;55.85
35892;BME280;21993;42.672;23.296;2023-02-19T04:37:58;95056.72;;;8.18;55.31
35892;BME280;21993;42.672;23.296;2023-02-19T04:40:23;95061.97;;;8.42;55.35
35892;BME280;21993;42.672;23.296;2023-02-19T04:42:48;95060.22;;;8.54;54.50
35892;BME280;21993;42.672;23.296;2023-02-19T04:45:14;95062.31;;;8.49;54.28
35892;BME280;21993;42.672;23.296;2023-02-19T04:47:39;95064.03;;;8.50;55.10
35892;BME280;21993;42.672;23.296;2023-02-19T04:50:05;95069.97;;;8.52;54.20
35892;BME280;21993;42.672;23.296;2023-02-19T04:52:30;95075.06;;;8.54;54.02
35892;BME280;21993;42.672;23.296;2023-02-19T04:54:57;95060.34;;;8.53;54.21
35892;BME280;21993;42.672;23.296;2023-02-19T04:57:22;95072.47;;;8.54;54.35
35892;BME280;21993;42.672;23.296;2023-02-19T04:59:48;95070.94;;;8.62;54.04
35892;BME280;21993;42.672;23.296;2023-02-19T05:02:13;95073.53;;;8.51;54.43
35892;BME280;21993;42.672;23.296;2023-02-19T05:04:39;95068.91;;;8.55;54.60
35892;BME280;21993;42.672;23.296;2023-02-19T05:07:05;95074.50;;;8.61;53.45
35892;BME280;21993;42.672;23.296;2023-02-19T05:09:30;95065.31;;;8.44;54.90
35892;BME280;21993;42.672;23.296;2023-02-19T05:11:55;95076.28;;;8.50;54.73
35892;BME280;21993;42.672;23.296;2023-02-19T05:14:21;95061.13;;;8.42;54.25
35892;BME280;21993;42.672;23.296;2023-02-19T05:16:46;95066.56;;;8.39;54.20
35892;BME280;21993;42.672;23.296;2023-02-19T05:19:12;95073.03;;;8.46;55.03
35892;BME280;21993;42.672;23.296;2023-02-19T05:21:37;95077.66;;;8.42;54.06
35892;BME280;21993;42.672;23.296;2023-02-19T05:24:06;95072.13;;;8.34;54.60
35892;BME280;21993;42.672;23.296;2023-02-19T05:26:32;95074.94;;;8.44;54.62
35892;BME280;21993;42.672;23.296;2023-02-19T05:28:58;95074.00;;;8.56;54.58
35892;BME280;21993;42.672;23.296;2023-02-19T05:31:23;95080.69;;;8.60;54.02
35892;BME280;21993;42.672;23.296;2023-02-19T05:33:49;95064.69;;;8.76;54.17
35892;BME280;21993;42.672;23.296;2023-02-19T05:36:18;95078.94;;;8.72;55.03
35892;BME280;21993;42.672;23.296;2023-02-19T05:38:43;95079.56;;;8.76;54.89
35892;BME280;21993;42.672;23.296;2023-02-19T05:43:36;95094.25;;;9.00;54.80
35892;BME280;21993;42.672;23.296;2023-02-19T05:46:02;95079.25;;;9.14;53.97
35892;BME280;21993;42.672;23.296;2023-02-19T05:48:27;95081.75;;;9.26;53.96
35892;BME280;21993;42.672;23.296;2023-02-19T05:50:52;95078.06;;;9.29;53.53
35892;BME280;21993;42.672;23.296;2023-02-19T05:53:18;95088.91;;;9.36;53.68
35892;BME280;21993;42.672;23.296;2023-02-19T05:55:43;95093.88;;;9.50;53.44
35892;BME280;21993;42.672;23.296;2023-02-19T05:58:08;95087.31;;;9.67;53.53
35892;BME280;21993;42.672;23.296;2023-02-19T06:00:34;95091.06;;;10.07;52.13
35892;BME280;21993;42.672;23.296;2023-02-19T06:03:00;95112.41;;;10.14;51.92
35892;BME280;21993;42.672;23.296;2023-02-19T06:05:25;95117.91;;;10.22;51.23
35892;BME280;21993;42.672;23.296;2023-02-19T06:07:50;95113.13;;;10.27;50.75
35892;BME280;21993;42.672;23.296;2023-02-19T06:10:16;95115.16;;;10.12;51.65
35892;BME280;21993;42.672;23.296;2023-02-19T06:12:41;95118.59;;;10.13;51.80
35892;BME280;21993;42.672;23.296;2023-02-19T06:15:07;95117.41;;;10.17;52.17
35892;BME280;21993;42.672;23.296;2023-02-19T06:17:33;95133.38;;;10.14;52.46
35892;BME280;21993;42.672;23.296;2023-02-19T06:19:59;95119.34;;;10.26;52.68
35892;BME280;21993;42.672;23.296;2023-02-19T06:22:25;95122.50;;;10.41;52.16
35892;BME280;21993;42.672;23.296;2023-02-19T06:24:50;95123.53;;;10.50;52.04
35892;BME280;21993;42.672;23.296;2023-02-19T06:27:15;95130.28;;;10.63;51.50
35892;BME280;21993;42.672;23.296;2023-02-19T06:29:41;95129.88;;;10.79;51.24
35892;BME280;21993;42.672;23.296;2023-02-19T06:32:06;95111.34;;;10.81;51.24
35892;BME280;21993;42.672;23.296;2023-02-19T06:34:32;95124.94;;;10.86;51.31
35892;BME280;21993;42.672;23.296;2023-02-19T06:36:58;95126.47;;;11.09;50.71
35892;BME280;21993;42.672;23.296;2023-02-19T06:39:24;95119.09;;;11.24;50.09
35892;BME280;21993;42.672;23.296;2023-02-19T06:41:50;95122.84;;;11.21;50.58
35892;BME280;21993;42.672;23.296;2023-02-19T06:44:15;95126.63;;;11.28;50.04
35892;BME280;21993;42.672;23.296;2023-02-19T06:46:41;95117.28;;;11.45;49.59
35892;BME280;21993;42.672;23.296;2023-02-19T06:49:07;95123.75;;;11.62;49.55
35892;BME280;21993;42.672;23.296;2023-02-19T06:51:32;95123.19;;;11.68;49.29
35892;BME280;21993;42.672;23.296;2023-02-19T06:53:58;95124.34;;;11.75;49.55
35892;BME280;21993;42.672;23.296;2023-02-19T06:56:37;95118.44;;;11.83;48.67
35892;BME280;21993;42.672;23.296;2023-02-19T06:59:09;95119.59;;;12.00;48.56
35892;BME280;21993;42.672;23.296;2023-02-19T07:01:35;95130.19;;;12.19;47.76
35892;BME280;21993;42.672;23.296;2023-02-19T07:04:02;95135.66;;;12.47;47.34
35892;BME280;21993;42.672;23.296;2023-02-19T07:06:28;95138.28;;;12.56;46.99
35892;BME280;21993;42.672;23.296;2023-02-19T07:08:56;95135.13;;;12.72;46.15
35892;BME280;21993;42.672;23.296;2023-02-19T07:11:23;95138.28;;;12.85;45.77
35892;BME280;21993;42.672;23.296;2023-02-19T07:13:57;95133.75;;;12.87;45.73
35892;BME280;21993;42.672;23.296;2023-02-19T07:16:23;95135.94;;;12.92;45.43
35892;BME280;21993;42.672;23.296;2023-02-19T07:18:48;95141.09;;;13.03;45.39
35892;BME280;21993;42.672;23.296;2023-02-19T07:21:15;95135.09;;;13.01;45.08
35892;BME280;21993;42.672;23.296;2023-02-19T07:23:41;95122.47;;;13.14;44.88
35892;BME280;21993;42.672;23.296;2023-02-19T07:26:09;95129.25;;;13.17;44.94
35892;BME280;21993;42.672;23.296;2023-02-19T07:28:35;95116.50;;;13.32;44.39
35892;BME280;21993;42.672;23.296;2023-02-19T07:31:01;95118.31;;;13.31;44.86
35892;BME280;21993;42.672;23.296;2023-02-19T07:33:27;95108.03;;;13.38;44.88
35892;BME280;21993;42.672;23.296;2023-02-19T07:35:52;95119.63;;;13.64;43.75
35892;BME280;21993;42.672;23.296;2023-02-19T07:38:19;95113.50;;;13.64;44.10
35892;BME280;21993;42.672;23.296;2023-02-19T07:41:01;95102.66;;;13.94;43.78
35892;BME280;21993;42.672;23.296;2023-02-19T07:43:29;95106.72;;;14.16;43.03
35892;BME280;21993;42.672;23.296;2023-02-19T07:45:55;95107.34;;;14.28;43.17
35892;BME280;21993;42.672;23.296;2023-02-19T07:48:20;95103.69;;;14.39;42.76
35892;BME280;21993;42.672;23.296;2023-02-19T07:50:52;95096.91;;;14.54;42.25
35892;BME280;21993;42.672;23.296;2023-02-19T07:53:19;95097.16;;;14.60;42.44
35892;BME280;21993;42.672;23.296;2023-02-19T07:55:44;95092.84;;;14.59;42.19
35892;BME280;21993;42.672;23.296;2023-02-19T07:58:10;95094.31;;;14.72;42.16
35892;BME280;21993;42.672;23.296;2023-02-19T08:00:35;95092.22;;;15.01;41.31
35892;BME280;21993;42.672;23.296;2023-02-19T08:03:01;95093.13;;;15.10;41.65
35892;BME280;21993;42.672;23.296;2023-02-19T08:05:32;95094.50;;;15.40;40.75
35892;BME280;21993;42.672;23.296;2023-02-19T08:07:59;95094.56;;;15.48;40.87
35892;BME280;21993;42.672;23.296;2023-02-19T08:10:25;95090.66;;;15.60;40.48
35892;BME280;21993;42.672;23.296;2023-02-19T08:13:14;95090.34;;;15.97;40.00
35892;BME280;21993;42.672;23.296;2023-02-19T08:15:53;95073.56;;;16.15;39.87
35892;BME280;21993;42.672;23.296;2023-02-19T08:18:24;95096.56;;;16.22;39.84
35892;BME280;21993;42.672;23.296;2023-02-19T08:20:50;95092.84;;;16.41;39.47
35892;BME280;21993;42.672;23.296;2023-02-19T08:23:16;95085.06;;;16.56;39.13
35892;BME280;21993;42.672;23.296;2023-02-19T08:25:42;95087.13;;;16.78;39.00
35892;BME280;21993;42.672;23.296;2023-02-19T08:28:09;95085.47;;;16.77;38.56
35892;BME280;21993;42.672;23.296;2023-02-19T08:30:35;95079.72;;;16.90;38.21
35892;BME280;21993;42.672;23.296;2023-02-19T08:33:04;95087.97;;;16.87;38.04
35892;BME280;21993;42.672;23.296;2023-02-19T08:35:30;95092.63;;;17.09;37.63
35892;BME280;21993;42.672;23.296;2023-02-19T08:37:56;95085.16;;;17.13;38.01
35892;BME280;21993;42.672;23.296;2023-02-19T08:40:23;95078.00;;;17.30;37.08
35892;BME280;21993;42.672;23.296;2023-02-19T08:42:49;95081.66;;;17.37;37.50
35892;BME280;21993;42.672;23.296;2023-02-19T08:45:14;95074.00;;;17.58;36.96
35892;BME280;21993;42.672;23.296;2023-02-19T08:47:40;95069.31;;;17.68;36.78
35892;BME280;21993;42.672;23.296;2023-02-19T08:50:06;95079.44;;;17.73;36.61
35892;BME280;21993;42.672;23.296;2023-02-19T08:52:32;95062.16;;;17.85;36.09
35892;BME280;21993;42.672;23.296;2023-02-19T08:54:58;95062.97;;;17.94;36.33
35892;BME280;21993;42.672;23.296;2023-02-19T08:57:23;95056.50;;;17.88;36.09
35892;BME280;21993;42.672;23.296;2023-02-19T08:59:49;95065.97;;;17.91;36.68
35892;BME280;21993;42.672;23.296;2023-02-19T09:02:15;95054.50;;;17.90;36.60
35892;BME280;21993;42.672;23.296;2023-02-19T09:04:40;95055.59;;;18.04;36.19
35892;BME280;21993;42.672;23.296;2023-02-19T09:07:06;95055.19;;;18.23;36.01
35892;BME280;21993;42.672;23.296;2023-02-19T09:09:35;95050.66;;;18.32;36.54
35892;BME280;21993;42.672;23.296;2023-02-19T09:12:07;95042.66;;;18.32;36.27
35892;BME280;21993;42.672;23.296;2023-02-19T09:14:33;95038.44;;;18.46;36.05
35892;BME280;21993;42.672;23.296;2023-02-19T09:16:59;95043.94;;;18.44;36.32
35892;BME280;21993;42.672;23.296;2023-02-19T09:19:25;95033.72;;;18.56;35.83
35892;BME280;21993;42.672;23.296;2023-02-19T09:21:51;95028.34;;;18.64;36.32
35892;BME280;21993;42.672;23.296;2023-02-19T09:24:17;95031.63;;;18.74;36.40
35892;BME280;21993;42.672;23.296;2023-02-19T09:26:42;95031.50;;;18.91;36.49
35892;BME280;21993;42.672;23.296;2023-02-19T09:29:07;95028.38;;;18.87;35.80
35892;BME280;21993;42.672;23.296;2023-02-19T09:31:33;95031.50;;;18.91;35.64
35892;BME280;21993;42.672;23.296;2023-02-19T09:33:59;95022.75;;;19.05;35.23
35892;BME280;21993;42.672;23.296;2023-02-19T09:36:24;95028.97;;;18.97;35.90
35892;BME280;21993;42.672;23.296;2023-02-19T09:38:50;95021.72;;;19.06;35.85
35892;BME280;21993;42.672;23.296;2023-02-19T09:41:28;95019.19;;;19.12;35.94
35892;BME280;21993;42.672;23.296;2023-02-19T09:43:56;95020.31;;;19.18;35.09
35892;BME280;21993;42.672;23.296;2023-02-19T09:46:35;95026.94;;;19.37;34.54
35892;BME280;21993;42.672;23.296;2023-02-19T09:49:12;95025.75;;;19.39;34.91
35892;BME280;21993;42.672;23.296;2023-02-19T09:51:40;95020.06;;;19.43;34.63
35892;BME280;21993;42.672;23.296;2023-02-19T09:54:15;95011.63;;;19.54;34.65
35892;BME280;21993;42.672;23.296;2023-02-19T09:56:42;95003.44;;;19.55;34.48
35892;BME280;21993;42.672;23.296;2023-02-19T09:59:17;94992.06;;;19.47;34.72
35892;BME280;21993;42.672;23.296;2023-02-19T10:01:46;94987.75;;;19.46;34.73
35892;BME280;21993;42.672;23.296;2023-02-19T10:04:13;94981.50;;;19.53;34.66
35892;BME280;21993;42.672;23.296;2023-02-19T10:06:38;94977.81;;;19.54;34.10
35892;BME280;21993;42.672;23.296;2023-02-19T10:09:30;94958.84;;;19.72;33.11
35892;BME280;21993;42.672;23.296;2023-02-19T10:11:57;94961.91;;;19.90;33.28
35892;BME280;21993;42.672;23.296;2023-02-19T10:17:02;94942.97;;;20.00;33.49
35892;BME280;21993;42.672;23.296;2023-02-19T10:19:29;94949.13;;;20.01;33.40
35892;BME280;21993;42.672;23.296;2023-02-19T10:21:55;94940.19;;;20.08;32.96
35892;BME280;21993;42.672;23.296;2023-02-19T10:24:26;94927.31;;;20.12;32.81
35892;BME280;21993;42.672;23.296;2023-02-19T10:26:52;94928.91;;;20.06;33.33
35892;BME280;21993;42.672;23.296;2023-02-19T10:29:18;94933.47;;;20.12;32.99
35892;BME280;21993;42.672;23.296;2023-02-19T10:31:44;94923.91;;;20.18;32.77
35892;BME280;21993;42.672;23.296;2023-02-19T10:34:18;94918.38;;;20.19;32.83
35892;BME280;21993;42.672;23.296;2023-02-19T10:36:50;94922.31;;;20.23;32.98
35892;BME280;21993;42.672;23.296;2023-02-19T10:41:51;94894.69;;;20.31;32.55
35892;BME280;21993;42.672;23.296;2023-02-19T10:44:26;94895.78;;;20.15;32.33
35892;BME280;21993;42.672;23.296;2023-02-19T10:46:55;94887.03;;;20.21;33.07
35892;BME280;21993;42.672;23.296;2023-02-19T10:49:37;94876.50;;;20.35;32.43
35892;BME280;21993;42.672;23.296;2023-02-19T10:52:25;94876.63;;;20.48;32.07
35892;BME280;21993;42.672;23.296;2023-02-19T10:54:55;94859.28;;;20.37;32.38
35892;BME280;21993;42.672;23.296;2023-02-19T10:57:28;94863.72;;;20.30;32.68
35892;BME280;21993;42.672;23.296;2023-02-19T11:02:22;94847.41;;;20.40;32.39
35892;BME280;21993;42.672;23.296;2023-02-19T11:07:26;94847.00;;;20.43;32.50
35892;BME280;21993;42.672;23.296;2023-02-19T11:09:52;94847.09;;;20.49;32.61
35892;BME280;21993;42.672;23.296;2023-02-19T11:12:31;94837.16;;;20.65;31.92
35892;BME280;21993;42.672;23.296;2023-02-19T11:15:12;94829.22;;;20.71;32.11
35892;BME280;21993;42.672;23.296;2023-02-19T11:17:44;94833.09;;;20.69;31.85
35892;BME280;21993;42.672;23.296;2023-02-19T11:20:14;94816.19;;;20.90;31.61
35892;BME280;21993;42.672;23.296;2023-02-19T11:22:42;94810.59;;;20.78;31.44
35892;BME280;21993;42.672;23.296;2023-02-19T11:28:04;94804.78;;;21.02;30.95
35892;BME280;21993;42.672;23.296;2023-02-19T11:30:41;94802.06;;;20.96;30.96
35892;BME280;21993;42.672;23.296;2023-02-19T11:35:43;94769.88;;;21.04;30.76
35892;BME280;21993;42.672;23.296;2023-02-19T11:38:11;94773.19;;;21.13;30.66
35892;BME280;21993;42.672;23.296;2023-02-19T11:40:59;94778.25;;;20.94;30.66
35892;BME280;21993;42.672;23.296;2023-02-19T11:49:27;94764.09;;;21.48;30.03
35892;BME280;21993;42.672;23.296;2023-02-19T11:54:50;94750.13;;;21.46;29.78
35892;BME280;21993;42.672;23.296;2023-02-19T11:57:27;94757.75;;;21.56;29.51
35892;BME280;21993;42.672;23.296;2023-02-19T12:05:42;94737.47;;;21.88;28.57
35892;BME280;21993;42.672;23.296;2023-02-19T12:14:05;94729.84;;;22.51;27.86
35892;BME280;21993;42.672;23.296;2023-02-19T12:19:42;94717.09;;;22.40;27.92
35892;BME280;21993;42.672;23.296;2023-02-19T12:22:42;94709.47;;;22.57;27.64
35892;BME280;21993;42.672;23.296;2023-02-19T12:25:28;94724.47;;;22.64;27.66
35892;BME280;21993;42.672;23.296;2023-02-19T12:36:26;94689.63;;;22.77;27.36
35892;BME280;21993;42.672;23.296;2023-02-19T12:39:12;94678.91;;;22.77;27.71
35892;BME280;21993;42.672;23.296;2023-02-19T12:41:43;94680.78;;;22.90;27.95
35892;BME280;21993;42.672;23.296;2023-02-19T12:44:17;94675.59;;;22.95;28.44
35892;BME280;21993;42.672;23.296;2023-02-19T12:46:48;94672.94;;;22.89;27.45
35892;BME280;21993;42.672;23.296;2023-02-19T12:49:29;94667.53;;;23.02;27.65
35892;BME280;21993;42.672;23.296;2023-02-19T12:52:00;94648.53;;;23.10;27.23
35892;BME280;21993;42.672;23.296;2023-02-19T12:54:34;94656.00;;;23.01;27.80
35892;BME280;21993;42.672;23.296;2023-02-19T13:07:27;94630.44;;;23.06;27.88
35892;BME280;21993;42.672;23.296;2023-02-19T13:09:59;94631.25;;;23.06;27.99
35892;BME280;21993;42.672;23.296;2023-02-19T13:12:29;94621.59;;;23.05;27.40
35892;BME280;21993;42.672;23.296;2023-02-19T13:15:31;94615.25;;;22.93;27.56
35892;BME280;21993;42.672;23.296;2023-02-19T13:17:59;94615.59;;;23.03;27.88
35892;BME280;21993;42.672;23.296;2023-02-19T13:20:32;94617.03;;;23.12;27.65
35892;BME280;21993;42.672;23.296;2023-02-19T13:37:06;94588.41;;;22.61;28.13
35892;BME280;21993;42.672;23.296;2023-02-19T13:39:32;94581.78;;;22.70;27.97
35892;BME280;21993;42.672;23.296;2023-02-19T13:41:58;94589.56;;;22.79;27.60
35892;BME280;21993;42.672;23.296;2023-02-19T13:44:27;94585.78;;;22.55;27.80
35892;BME280;21993;42.672;23.296;2023-02-19T13:46:53;94582.91;;;22.43;27.90
35892;BME280;21993;42.672;23.296;2023-02-19T13:51:49;94582.31;;;22.41;27.91
35892;BME280;21993;42.672;23.296;2023-02-19T13:54:32;94577.66;;;22.16;28.28
35892;BME280;21993;42.672;23.296;2023-02-19T13:57:25;94578.91;;;22.01;28.40
35892;BME280;21993;42.672;23.296;2023-02-19T13:59:57;94582.03;;;21.71;28.95
35892;BME280;21993;42.672;23.296;2023-02-19T14:02:27;94584.09;;;21.62;28.83
35892;BME280;21993;42.672;23.296;2023-02-19T14:04:59;94575.66;;;21.66;29.27
35892;BME280;21993;42.672;23.296;2023-02-19T14:09:50;94566.03;;;21.38;29.74
35892;BME280;21993;42.672;23.296;2023-02-19T14:19:49;94560.44;;;21.20;29.45
35892;BME280;21993;42.672;23.296;2023-02-19T14:33:33;94548.94;;;21.06;30.40
35892;BME280;21993;42.672;23.296;2023-02-19T14:36:08;94549.53;;;20.88;29.83
35892;BME280;21993;42.672;23.296;2023-02-19T14:38:44;94540.63;;;20.68;30.47
35892;BME280;21993;42.672;23.296;2023-02-19T14:41:12;94533.72;;;20.87;29.91
35892;BME280;21993;42.672;23.296;2023-02-19T14:43:39;94534.34;;;20.95;30.48
35892;BME280;21993;42.672;23.296;2023-02-19T14:48:43;94529.38;;;20.72;30.34
35892;BME280;21993;42.672;23.296;2023-02-19T14:51:35;94534.03;;;20.50;30.92
35892;BME280;21993;42.672;23.296;2023-02-19T14:54:13;94519.00;;;20.36;30.69
35892;BME280;21993;42.672;23.296;2023-02-19T14:56:42;94520.75;;;20.64;30.81
35892;BME280;21993;42.672;23.296;2023-02-19T14:59:26;94517.88;;;20.72;30.69
35892;BME280;21993;42.672;23.296;2023-02-19T15:02:00;94523.22;;;20.72;30.71
35892;BME280;21993;42.672;23.296;2023-02-19T15:04:35;94523.19;;;20.59;30.74
35892;BME280;21993;42.672;23.296;2023-02-19T15:07:02;94509.84;;;20.59;30.88
35892;BME280;21993;42.672;23.296;2023-02-19T15:09:32;94511.25;;;20.48;31.24
35892;BME280;21993;42.672;23.296;2023-02-19T15:12:01;94507.06;;;20.25;31.51
35892;BME280;21993;42.672;23.296;2023-02-19T15:14:27;94518.34;;;20.34;30.90
35892;BME280;21993;42.672;23.296;2023-02-19T15:17:02;94505.41;;;20.18;31.73